Time;durP1;ratioP1;P1;durP2;ratioP2;P2;SDS_P1;SDS_P2;PMS_P1;PMS_P2;Temp;Humidity;BMP_temperature;BMP_pressure;BME280_temperature;BME280_humidity;BME280_pressure;Samples;Min_cycle;Max_cycle;Signal;HPM_P1;HPM_P2
2021/11/17 09:02:04;;;;;;;14.95;11.63;;;;;;;;;;12981563;22;19911;-86
2021/11/17 09:19:10;;;;;;;14.60;11.43;;;;;;;;;;12974194;23;20576;-85
2021/11/17 09:24:15;;;;;;;13.70;11.07;;;;;;;;;;12973881;23;20000;-83
2021/11/17 09:29:19;;;;;;;9.38;7.50;;;;;;;;;;12939085;23;20020;-85
2021/11/17 09:40:37;;;;;;;11.60;7.93;;;;;;;;;;12965242;23;20008;-86
2021/11/17 09:45:58;;;;;;;11.73;8.95;;;;;;;;;;12970245;23;20000;-86
2021/11/17 09:56:51;;;;;;;7.57;5.72;;;;;;;;;;12972192;23;19911;-85
2021/11/17 10:47:53;;;;;;;10.65;6.40;;;;;;;;;;12759125;23;20057;-84
2021/11/17 10:53:05;;;;;;;13.82;9.13;;;;;;;;;;12707895;23;20010;-84
2021/11/17 11:03:55;;;;;;;9.98;5.28;;;;;;;;;;12796049;23;20003;-85
2021/11/17 11:09:00;;;;;;;14.30;7.10;;;;;;;;;;12926106;23;20020;-85
2021/11/17 11:14:03;;;;;;;12.07;7.82;;;;;;;;;;12925504;23;20067;-84
2021/11/17 11:19:12;;;;;;;11.80;7.85;;;;;;;;;;12924218;23;20058;-86
2021/11/17 11:24:13;;;;;;;20.15;13.25;;;;;;;;;;12905688;23;20012;-87
2021/11/17 11:29:14;;;;;;;;;;;;;;;;;;12908491;23;20015;-86
2021/11/17 11:34:18;;;;;;;14.10;9.53;;;;;;;;;;12910569;23;19931;-88
2021/11/17 11:39:20;;;;;;;14.68;9.40;;;;;;;;;;12913044;22;20633;-87
2021/11/17 11:44:23;;;;;;;12.93;8.68;;;;;;;;;;12917259;23;20440;-86
2021/11/17 11:49:37;;;;;;;14.35;7.57;;;;;;;;;;12923799;23;20004;-88
2021/11/17 11:54:51;;;;;;;16.15;10.10;;;;;;;;;;12929880;23;20008;-88
2021/11/17 11:59:58;;;;;;;18.13;9.88;;;;;;;;;;12926332;23;20000;-86
2021/11/17 12:05:11;;;;;;;11.05;7.32;;;;;;;;;;12923432;23;20121;-89
2021/11/17 12:16:03;;;;;;;13.00;8.65;;;;;;;;;;12938912;23;20095;-87
2021/11/17 12:21:12;;;;;;;14.43;8.63;;;;;;;;;;12835227;23;20028;-87
2021/11/17 12:26:25;;;;;;;10.90;6.10;;;;;;;;;;12877562;23;20063;-89
2021/11/17 13:33:21;;;;;;;9.48;7.28;;;;;;;;;;12827963;23;20024;-88
2021/11/17 13:38:25;;;;;;;13.23;9.20;;;;;;;;;;12785592;23;20013;-86
2021/11/17 13:43:27;;;;;;;13.18;9.45;;;;;;;;;;12783396;23;20329;-88
2021/11/17 13:48:48;;;;;;;22.10;15.40;;;;;;;;;;12780925;23;20005;-88
2021/11/17 13:59:11;;;;;;;13.65;8.80;;;;;;;;;;12825320;23;19956;-88
2021/11/17 14:04:35;;;;;;;12.90;9.25;;;;;;;;;;12820278;23;20417;-88
2021/11/17 14:44:24;;;;;;;26.60;20.48;;;;;;;;;;12623675;23;20019;-87
2021/11/17 14:49:45;;;;;;;;;;;;;;;;;;;;;
2021/11/17 14:55:07;;;;;;;16.35;11.32;;;;;;;;;;12703974;23;20013;-85
2021/11/17 15:00:25;;;;;;;18.75;12.90;;;;;;;;;;12803438;23;20414;-86
2021/11/17 15:11:34;;;;;;;20.17;13.82;;;;;;;;;;12819674;23;19997;-86
2021/11/17 15:22:35;;;;;;;20.45;13.55;;;;;;;;;;12556829;23;20002;-85
2021/11/17 15:27:50;;;;;;;37.53;20.60;;;;;;;;;;12743349;23;20017;-85
2021/11/17 15:32:53;;;;;;;40.75;23.52;;;;;;;;;;12789295;23;20074;-83
2021/11/17 15:37:55;;;;;;;59.00;32.58;;;;;;;;;;12799938;23;20041;-84
2021/11/17 15:42:56;;;;;;;73.00;40.80;;;;;;;;;;12801295;23;20005;-82
2021/11/17 15:47:57;;;;;;;71.18;40.45;;;;;;;;;;12819364;23;20019;-85
2021/11/17 15:52:58;;;;;;;71.03;39.72;;;;;;;;;;12878658;23;20066;-85
2021/11/17 15:58:02;;;;;;;61.22;36.10;;;;;;;;;;12860819;23;19992;-85
2021/11/17 16:03:03;;;;;;;54.65;33.15;;;;;;;;;;12875634;23;20015;-86
2021/11/17 16:08:05;;;;;;;53.63;31.25;;;;;;;;;;12873614;23;20019;-85
2021/11/17 16:13:06;;;;;;;55.55;33.70;;;;;;;;;;12868744;23;20004;-85
2021/11/17 16:18:07;;;;;;;51.30;31.10;;;;;;;;;;12868061;23;20013;-85
2021/11/17 16:25:32;;;;;;;51.63;33.33;;;;;;;;;;12867378;23;20310;-84
2021/11/17 16:28:32;;;;;;;50.20;32.97;;;;;;;;;;12894453;23;20058;-86
2021/11/17 16:33:33;;;;;;;46.08;30.08;;;;;;;;;;12868994;23;20047;-86
2021/11/17 16:38:34;;;;;;;41.58;26.95;;;;;;;;;;12851701;23;20077;-86
2021/11/17 16:43:41;;;;;;;39.60;26.05;;;;;;;;;;12848094;23;20188;-87
2021/11/17 16:48:43;;;;;;;22.05;15.63;;;;;;;;;;12856199;23;20008;-84
2021/11/17 16:53:44;;;;;;;22.98;15.50;;;;;;;;;;12871370;23;20080;-83
2021/11/17 16:58:45;;;;;;;23.65;16.90;;;;;;;;;;12881553;23;20016;-82
2021/11/17 17:03:47;;;;;;;26.35;16.20;;;;;;;;;;12882011;23;20008;-84
2021/11/17 17:08:49;;;;;;;29.33;18.83;;;;;;;;;;12860550;23;20028;-83
2021/11/17 17:13:50;;;;;;;28.10;16.88;;;;;;;;;;12856848;23;20004;-83
2021/11/17 17:19:22;;;;;;;24.20;17.33;;;;;;;;;;12862649;23;20008;-91
2021/11/17 17:24:24;;;;;;;23.02;16.13;;;;;;;;;;12873404;23;20005;-89
